createdAt,value
2023-02-02T00:02:51.201Z,2.97
2023-02-02T00:05:54.415Z,3.02
2023-02-02T00:08:58.634Z,2.99
2023-02-02T00:12:01.533Z,3.08
2023-02-02T00:15:03.950Z,3.06
2023-02-02T00:18:07.265Z,3.08
2023-02-02T00:21:09.474Z,3.10
2023-02-02T00:24:14.515Z,3.16
2023-02-02T00:27:16.688Z,3.20
2023-02-02T00:30:19.398Z,3.20
2023-02-02T00:33:21.907Z,3.05
2023-02-02T00:36:24.781Z,3.04
2023-02-02T00:39:27.077Z,2.95
2023-02-02T00:42:29.985Z,2.98
2023-02-02T00:45:32.215Z,3.01
2023-02-02T00:48:34.827Z,2.95
2023-02-02T00:51:37.475Z,3.03
2023-02-02T00:54:40.793Z,3.21
2023-02-02T00:57:44.370Z,3.33
2023-02-02T01:00:48.481Z,3.29
2023-02-02T01:03:51.616Z,3.41
2023-02-02T01:06:55.061Z,3.36
2023-02-02T01:09:57.870Z,3.25
2023-02-02T01:13:00.591Z,3.28
2023-02-02T01:16:04.802Z,3.29
2023-02-02T01:19:09.181Z,3.25
2023-02-02T01:22:11.714Z,3.26
2023-02-02T01:25:15.298Z,3.23
2023-02-02T01:28:17.487Z,3.18
2023-02-02T01:31:20.671Z,3.16
2023-02-02T01:34:23.121Z,3.15
2023-02-02T01:37:26.010Z,3.10
2023-02-02T01:40:28.443Z,3.12
2023-02-02T01:43:43.274Z,3.09
2023-02-02T01:46:45.501Z,3.05
2023-02-02T01:49:48.488Z,3.02
2023-02-02T01:52:53.790Z,3.12
2023-02-02T01:55:57.167Z,3.09
2023-02-02T01:59:00.015Z,3.03
2023-02-02T02:02:03.710Z,3.04
2023-02-02T02:05:07.747Z,3.09
2023-02-02T02:08:30.930Z,3.20
2023-02-02T02:11:36.120Z,3.24
2023-02-02T02:14:56.833Z,3.22
2023-02-02T02:18:24.608Z,3.21
2023-02-02T02:21:48.820Z,3.24
2023-02-02T02:25:21.623Z,3.18
2023-02-02T02:28:47.154Z,3.15
2023-02-02T02:32:27.269Z,3.11
2023-02-02T02:35:48.453Z,3.12
2023-02-02T02:39:15.278Z,3.10
2023-02-02T02:42:22.801Z,3.03
2023-02-02T02:45:28.112Z,3.02
2023-02-02T02:48:31.055Z,2.98
2023-02-02T02:51:44.264Z,2.95
2023-02-02T02:54:53.876Z,2.88
2023-02-02T02:58:09.002Z,2.87
2023-02-02T03:01:20.583Z,2.77
2023-02-02T03:04:39.729Z,2.72
2023-02-02T03:07:47.619Z,2.68
2023-02-02T03:10:52.371Z,2.66
2023-02-02T03:13:55.312Z,2.65
2023-02-02T03:16:57.668Z,2.65
2023-02-02T03:19:59.889Z,2.65
2023-02-02T03:23:02.688Z,2.65
2023-02-02T03:26:05.216Z,2.64
2023-02-02T03:29:08.235Z,2.61
2023-02-02T03:32:10.955Z,2.61
2023-02-02T03:35:14.417Z,2.65
2023-02-02T03:38:16.668Z,2.64
2023-02-02T03:41:19.403Z,2.59
2023-02-02T03:44:21.656Z,2.59
2023-02-02T03:47:29.607Z,2.58
2023-02-02T03:50:31.910Z,2.45
2023-02-02T03:53:34.420Z,2.39
2023-02-02T03:56:36.671Z,2.34
2023-02-02T03:59:39.212Z,2.26
2023-02-02T04:02:42.011Z,2.26
2023-02-02T04:05:44.808Z,2.19
2023-02-02T04:08:47.063Z,2.20
2023-02-02T04:11:49.575Z,2.16
2023-02-02T04:14:52.177Z,2.13
2023-02-02T04:17:55.360Z,2.09
2023-02-02T04:21:02.160Z,2.03
2023-02-02T04:24:07.399Z,2.02
2023-02-02T04:27:09.576Z,1.97
2023-02-02T04:30:12.265Z,2.02
2023-02-02T04:33:14.449Z,1.98
2023-02-02T04:36:17.458Z,2.00
2023-02-02T04:39:19.965Z,1.93
2023-02-02T04:42:22.805Z,1.90
2023-02-02T04:45:25.259Z,1.89
2023-02-02T04:48:27.988Z,1.88
2023-02-02T04:51:30.575Z,1.82
2023-02-02T04:54:34.010Z,1.85
2023-02-02T04:57:36.272Z,1.72
2023-02-02T05:00:38.748Z,1.77
2023-02-02T05:03:41.752Z,1.76
2023-02-02T05:06:44.482Z,1.71
2023-02-02T05:09:46.993Z,1.66
2023-02-02T05:12:53.515Z,1.56
2023-02-02T05:15:55.653Z,1.50
2023-02-02T05:18:59.578Z,1.38
2023-02-02T05:22:02.849Z,1.44
2023-02-02T05:25:06.891Z,1.64
2023-02-02T05:28:09.110Z,1.60
2023-02-02T05:31:11.984Z,1.63
2023-02-02T05:34:14.423Z,1.70
2023-02-02T05:37:17.529Z,1.72
2023-02-02T05:40:19.797Z,1.74
2023-02-02T05:43:25.748Z,1.80
2023-02-02T05:46:28.948Z,1.89
2023-02-02T05:49:31.431Z,1.85
2023-02-02T05:52:35.559Z,1.70
2023-02-02T05:55:38.084Z,1.65
2023-02-02T05:58:40.289Z,1.80
2023-02-02T06:01:43.921Z,1.66
2023-02-02T06:04:46.674Z,1.82
2023-02-02T06:07:48.915Z,1.69
2023-02-02T06:10:51.477Z,1.66
2023-02-02T06:13:53.828Z,1.57
2023-02-02T06:16:56.402Z,1.51
2023-02-02T06:19:58.866Z,1.48
2023-02-02T06:23:01.366Z,1.52
2023-02-02T06:26:04.384Z,1.58
2023-02-02T06:29:07.812Z,1.58
2023-02-02T06:32:10.060Z,1.63
2023-02-02T06:35:12.800Z,1.65
2023-02-02T06:38:15.278Z,1.69
2023-02-02T06:41:20.352Z,1.78
2023-02-02T06:44:22.593Z,1.76
2023-02-02T06:47:26.919Z,1.77
2023-02-02T06:50:30.313Z,1.85
2023-02-02T06:53:32.924Z,1.94
2023-02-02T06:56:35.165Z,2.01
2023-02-02T06:59:38.276Z,2.05
2023-02-02T07:02:40.482Z,2.10
2023-02-02T07:05:43.184Z,2.10
2023-02-02T07:08:46.047Z,2.14
2023-02-02T07:12:00.128Z,2.19
2023-02-02T07:15:02.325Z,2.25
2023-02-02T07:18:04.894Z,2.23
2023-02-02T07:21:07.112Z,2.25
2023-02-02T07:24:09.715Z,2.25
2023-02-02T07:27:12.047Z,2.42
2023-02-02T07:30:16.067Z,2.50
2023-02-02T07:33:18.199Z,2.53
2023-02-02T07:36:23.513Z,2.69
2023-02-02T07:39:25.830Z,2.72
2023-02-02T07:42:28.335Z,2.78
2023-02-02T07:45:31.180Z,2.77
2023-02-02T07:48:34.599Z,2.72
2023-02-02T07:51:38.249Z,2.79
2023-02-02T07:54:42.390Z,2.79
2023-02-02T07:57:44.803Z,2.86
2023-02-02T08:00:47.319Z,2.97
2023-02-02T08:03:50.658Z,3.18
2023-02-02T08:06:53.074Z,3.28
2023-02-02T08:09:55.583Z,3.25
2023-02-02T08:12:57.857Z,3.43
2023-02-02T08:16:00.478Z,3.58
2023-02-02T08:19:02.731Z,3.76
2023-02-02T08:22:05.166Z,3.93
2023-02-02T08:25:08.259Z,4.02
2023-02-02T08:28:10.810Z,4.28
2023-02-02T08:31:19.496Z,4.57
2023-02-02T08:34:22.051Z,4.71
2023-02-02T08:37:24.206Z,4.92
2023-02-02T08:40:26.818Z,4.99
2023-02-02T08:43:29.154Z,5.07
2023-02-02T08:46:31.872Z,5.18
2023-02-02T08:49:34.551Z,5.40
2023-02-02T08:52:37.151Z,5.48
2023-02-02T08:55:39.324Z,5.66
2023-02-02T08:58:50.883Z,6.09
2023-02-02T09:01:53.106Z,6.07
2023-02-02T09:04:55.576Z,6.27
2023-02-02T09:07:57.742Z,6.21
2023-02-02T09:11:05.626Z,6.23
2023-02-02T09:14:08.975Z,6.27
2023-02-02T09:17:11.497Z,6.55
2023-02-02T09:20:13.775Z,6.55
2023-02-02T09:23:16.436Z,6.79
2023-02-02T09:26:22.027Z,6.69
2023-02-02T09:29:24.615Z,6.62
2023-02-02T09:32:26.833Z,6.55
2023-02-02T09:35:29.422Z,6.71
2023-02-02T09:38:31.685Z,6.42
2023-02-02T09:41:37.079Z,6.25
2023-02-02T09:44:48.553Z,6.34
2023-02-02T09:47:58.462Z,6.45
2023-02-02T09:51:06.413Z,6.29
2023-02-02T09:54:34.799Z,6.34
2023-02-02T09:57:41.174Z,6.40
2023-02-02T10:01:01.435Z,6.48
2023-02-02T10:04:36.995Z,6.37
2023-02-02T10:07:45.654Z,6.52
2023-02-02T10:10:50.792Z,6.88
2023-02-02T10:13:57.246Z,6.61
2023-02-02T10:17:12.842Z,6.40
2023-02-02T10:20:42.573Z,6.53
2023-02-02T10:23:45.911Z,6.56
2023-02-02T10:26:52.341Z,6.60
2023-02-02T10:30:03.370Z,6.79
2023-02-02T10:33:07.375Z,6.57
2023-02-02T10:36:32.665Z,6.39
2023-02-02T10:39:49.458Z,6.84
2023-02-02T10:43:26.167Z,8.38
2023-02-02T10:46:42.504Z,10.50
2023-02-02T10:49:45.805Z,10.78
2023-02-02T10:52:54.383Z,11.82
2023-02-02T10:56:02.971Z,10.71
2023-02-02T10:59:17.871Z,8.94
2023-02-02T11:02:21.387Z,7.89
2023-02-02T11:05:51.070Z,7.08
2023-02-02T11:08:59.357Z,7.16
2023-02-02T11:12:10.714Z,7.16
2023-02-02T11:15:28.765Z,7.81
2023-02-02T11:18:31.354Z,9.50
2023-02-02T11:21:35.061Z,10.32
2023-02-02T11:24:47.304Z,11.54
2023-02-02T11:27:49.960Z,11.80
2023-02-02T11:30:53.803Z,10.62
2023-02-02T11:34:20.791Z,9.77
2023-02-02T11:37:23.553Z,8.89
2023-02-02T11:40:28.300Z,10.94
2023-02-02T11:43:41.475Z,11.51
2023-02-02T11:46:47.624Z,12.87
2023-02-02T11:49:52.326Z,11.77
2023-02-02T11:52:57.820Z,10.05
2023-02-02T11:56:06.797Z,8.96
2023-02-02T11:59:29.594Z,8.11
2023-02-02T12:02:32.720Z,7.50
2023-02-02T12:05:37.490Z,7.29
2023-02-02T12:08:39.990Z,6.97
2023-02-02T12:12:00.152Z,6.87
2023-02-02T12:15:02.602Z,6.89
2023-02-02T12:18:20.147Z,6.61
2023-02-02T12:21:31.307Z,6.36
2023-02-02T12:24:54.805Z,6.37
2023-02-02T12:28:08.057Z,6.09
2023-02-02T12:31:27.415Z,6.09
2023-02-02T12:34:41.868Z,6.14
2023-02-02T12:38:02.758Z,6.19
2023-02-02T12:41:34.443Z,6.03
2023-02-02T12:44:51.023Z,6.00
2023-02-02T12:48:00.183Z,5.85
2023-02-02T12:51:15.031Z,5.95
2023-02-02T12:54:46.132Z,5.92
2023-02-02T12:58:10.665Z,5.93
2023-02-02T13:01:28.249Z,5.87
2023-02-02T13:05:09.149Z,5.94
2023-02-02T13:08:20.167Z,5.87
2023-02-02T13:11:33.017Z,5.82
2023-02-02T13:14:47.117Z,5.86
2023-02-02T13:18:00.441Z,5.83
2023-02-02T13:21:15.409Z,5.88
2023-02-02T13:24:31.081Z,5.88
2023-02-02T13:27:33.396Z,5.79
2023-02-02T13:30:39.812Z,5.75
2023-02-02T13:33:44.705Z,5.76
2023-02-02T13:36:53.341Z,5.82
2023-02-02T13:40:01.041Z,5.69
2023-02-02T13:43:15.676Z,5.73
2023-02-02T13:46:27.588Z,5.74
2023-02-02T13:49:52.595Z,5.75
2023-02-02T13:53:13.254Z,5.88
2023-02-02T13:56:18.662Z,5.96
2023-02-02T13:59:58.415Z,5.87
2023-02-02T14:03:29.272Z,6.21
2023-02-02T14:06:56.748Z,6.67
2023-02-02T14:09:59.504Z,7.47
2023-02-02T14:13:07.233Z,7.28
2023-02-02T14:16:21.593Z,7.07
2023-02-02T14:19:33.279Z,6.54
2023-02-02T14:22:39.803Z,6.54
2023-02-02T14:25:45.347Z,6.40
2023-02-02T14:28:51.233Z,6.30
2023-02-02T14:31:55.544Z,6.16
2023-02-02T14:34:58.151Z,6.04
2023-02-02T14:38:32.607Z,5.79
2023-02-02T14:42:10.263Z,5.69
2023-02-02T14:45:12.631Z,5.79
2023-02-02T14:48:25.225Z,5.92
2023-02-02T14:51:30.787Z,6.48
2023-02-02T14:54:39.794Z,6.19
2023-02-02T14:57:42.777Z,6.06
2023-02-02T15:00:57.280Z,6.14
2023-02-02T15:04:22.985Z,5.99
2023-02-02T15:07:25.062Z,5.79
2023-02-02T15:10:53.921Z,5.62
2023-02-02T15:14:06.921Z,5.59
2023-02-02T15:17:31.116Z,5.53
2023-02-02T15:20:40.459Z,5.46
2023-02-02T15:23:46.177Z,5.31
2023-02-02T15:26:50.030Z,5.27
2023-02-02T15:30:02.961Z,5.19
2023-02-02T15:33:24.736Z,5.20
2023-02-02T15:36:31.231Z,5.09
2023-02-02T15:39:41.174Z,4.98
2023-02-02T15:42:53.099Z,5.01
2023-02-02T15:46:04.499Z,4.90
2023-02-02T15:49:33.682Z,4.79
2023-02-02T15:52:47.041Z,4.80
2023-02-02T15:55:50.500Z,4.71
2023-02-02T15:58:54.940Z,4.68
2023-02-02T16:02:06.507Z,4.48
2023-02-02T16:05:24.696Z,4.46
2023-02-02T16:08:34.929Z,4.30
2023-02-02T16:11:42.043Z,4.17
2023-02-02T16:14:50.257Z,4.03
2023-02-02T16:18:02.324Z,3.94
2023-02-02T16:21:14.673Z,3.95
2023-02-02T16:24:28.499Z,3.85
2023-02-02T16:27:31.484Z,3.74
2023-02-02T16:30:38.122Z,3.78
2023-02-02T16:33:44.811Z,3.84
2023-02-02T16:37:31.955Z,3.95
2023-02-02T16:40:34.221Z,3.95
2023-02-02T16:43:39.020Z,3.92
2023-02-02T16:46:47.668Z,3.79
2023-02-02T16:49:50.146Z,3.72
2023-02-02T16:52:54.334Z,3.64
2023-02-02T16:55:58.003Z,3.59
2023-02-02T16:59:05.402Z,3.55
2023-02-02T17:02:31.564Z,3.63
2023-02-02T17:05:47.568Z,3.75
2023-02-02T17:08:51.198Z,3.87
2023-02-02T17:11:59.960Z,3.73
2023-02-02T17:15:24.449Z,3.64
2023-02-02T17:18:26.999Z,3.59
2023-02-02T17:21:33.583Z,3.52
2023-02-02T17:24:36.222Z,3.53
2023-02-02T17:27:38.681Z,3.56
2023-02-02T17:30:42.626Z,3.67
2023-02-02T17:33:45.204Z,3.57
2023-02-02T17:36:47.511Z,3.61
2023-02-02T17:39:50.734Z,3.50
2023-02-02T17:42:53.789Z,3.57
2023-02-02T17:45:56.407Z,3.48
2023-02-02T17:48:58.717Z,3.59
2023-02-02T17:52:01.165Z,3.57
2023-02-02T17:55:03.493Z,3.52
2023-02-02T17:58:06.416Z,3.51
2023-02-02T18:01:11.658Z,3.61
2023-02-02T18:04:15.245Z,3.66
2023-02-02T18:07:17.369Z,3.67
2023-02-02T18:10:24.540Z,3.72
2023-02-02T18:13:27.739Z,3.63
2023-02-02T18:16:30.584Z,3.66
2023-02-02T18:19:32.715Z,3.67
2023-02-02T18:22:35.201Z,3.49
2023-02-02T18:25:39.009Z,3.49
2023-02-02T18:28:41.639Z,3.47
2023-02-02T18:31:43.904Z,3.42
2023-02-02T18:34:51.164Z,3.38
2023-02-02T18:37:53.677Z,3.37
2023-02-02T18:40:57.713Z,3.38
2023-02-02T18:43:59.849Z,3.23
2023-02-02T18:47:02.224Z,3.38
2023-02-02T18:50:04.841Z,3.32
2023-02-02T18:53:07.290Z,3.20
2023-02-02T18:56:10.561Z,3.14
2023-02-02T18:59:12.885Z,3.20
2023-02-02T19:02:17.846Z,3.10
2023-02-02T19:05:38.961Z,2.99
2023-02-02T19:08:41.158Z,3.06
2023-02-02T19:11:46.366Z,3.14
2023-02-02T19:14:48.495Z,3.20
2023-02-02T19:17:53.463Z,3.23
2023-02-02T19:20:55.690Z,3.37
2023-02-02T19:23:59.591Z,3.38
2023-02-02T19:27:01.727Z,3.26
2023-02-02T19:30:16.297Z,3.33
2023-02-02T19:33:19.167Z,3.26
2023-02-02T19:36:24.162Z,3.30
2023-02-02T19:39:30.763Z,3.21
2023-02-02T19:42:33.375Z,3.35
2023-02-02T19:45:35.852Z,3.33
2023-02-02T19:48:39.109Z,3.15
2023-02-02T19:51:51.431Z,3.12
2023-02-02T19:54:53.953Z,3.23
2023-02-02T19:58:15.735Z,3.20
2023-02-02T20:01:32.652Z,3.08
2023-02-02T20:04:35.197Z,2.98
2023-02-02T20:07:40.962Z,3.06
2023-02-02T20:10:44.007Z,2.99
2023-02-02T20:13:48.383Z,2.93
2023-02-02T20:16:55.408Z,2.78
2023-02-02T20:19:59.043Z,2.87
2023-02-02T20:23:02.260Z,2.78
2023-02-02T20:26:25.808Z,2.83
2023-02-02T20:29:40.142Z,2.82
2023-02-02T20:32:42.469Z,2.73
2023-02-02T20:35:45.037Z,2.73
2023-02-02T20:38:48.055Z,2.79
2023-02-02T20:41:51.944Z,2.82
2023-02-02T20:44:54.860Z,2.85
2023-02-02T20:47:57.549Z,2.81
2023-02-02T20:50:59.807Z,2.84
2023-02-02T20:54:02.239Z,2.82
2023-02-02T20:57:04.864Z,2.74
2023-02-02T21:00:10.574Z,2.66
2023-02-02T21:03:14.171Z,2.58
2023-02-02T21:06:16.683Z,2.53
2023-02-02T21:09:18.997Z,2.61
2023-02-02T21:12:25.442Z,2.53
2023-02-02T21:15:27.681Z,2.48
2023-02-02T21:18:30.295Z,2.49
2023-02-02T21:21:32.461Z,2.49
2023-02-02T21:24:34.906Z,2.61
2023-02-02T21:27:41.017Z,2.55
2023-02-02T21:30:43.743Z,2.57
2023-02-02T21:33:47.411Z,2.56
2023-02-02T21:36:50.523Z,2.69
2023-02-02T21:39:57.997Z,2.70
2023-02-02T21:43:06.019Z,2.59
2023-02-02T21:46:17.877Z,2.51
2023-02-02T21:49:26.596Z,2.52
2023-02-02T21:52:33.008Z,2.46
2023-02-02T21:55:37.317Z,2.44
2023-02-02T21:58:39.507Z,2.37
2023-02-02T22:01:42.550Z,2.31
2023-02-02T22:04:45.007Z,2.42
2023-02-02T22:07:49.086Z,2.46
2023-02-02T22:10:51.722Z,2.37
2023-02-02T22:13:55.491Z,2.30
2023-02-02T22:16:59.341Z,2.38
2023-02-02T22:20:07.529Z,2.38
2023-02-02T22:23:11.884Z,2.33
2023-02-02T22:26:34.746Z,2.29
2023-02-02T22:29:37.143Z,2.26
2023-02-02T22:32:39.271Z,2.29
2023-02-02T22:35:42.600Z,2.41
2023-02-02T22:38:44.752Z,2.17
2023-02-02T22:41:47.182Z,2.27
2023-02-02T22:44:49.603Z,2.32
2023-02-02T22:47:52.529Z,2.25
2023-02-02T22:50:54.686Z,2.10
2023-02-02T22:53:57.098Z,2.08
2023-02-02T22:56:59.299Z,1.95
2023-02-02T23:00:04.320Z,1.86
2023-02-02T23:03:06.612Z,1.75
2023-02-02T23:06:09.070Z,1.70
2023-02-02T23:09:11.219Z,1.72
2023-02-02T23:12:13.694Z,1.75
2023-02-02T23:15:15.889Z,1.59
2023-02-02T23:18:18.279Z,1.81
2023-02-02T23:21:20.440Z,1.84
2023-02-02T23:24:22.956Z,1.88
2023-02-02T23:27:25.258Z,1.78
2023-02-02T23:30:27.933Z,1.85
2023-02-02T23:33:31.110Z,1.61
2023-02-02T23:36:33.543Z,1.69
2023-02-02T23:39:35.659Z,1.66
2023-02-02T23:42:38.117Z,1.72
2023-02-02T23:45:40.751Z,1.64
2023-02-02T23:48:43.311Z,1.70
2023-02-02T23:51:45.917Z,1.50
2023-02-02T23:54:48.498Z,1.40
2023-02-02T23:57:50.687Z,1.50
